Airfield :
LOGIN :

Register | Disclaimer

   EN    FR    IT 

 










Legend :    VFR   Marginal VFR   IFR   Intensive IFR   Very Intensive IFR
Visi :
Ceiling :
>= 8 km
>= 3000ft
5 to 8 km
1000 to 3000 ft
1500m to 5 km
500 to 1000 ft
800 to 1500m
200 to 500 ft
< 800m
< 200 ft
Symbols :   Thunderstorms  Fog  Heavy snow  Heavy precipitations  Wind > 20 kt
SIGMETs :     Misc.  Thunderstorms  Icing  Turbulence  Mountain Waves  Volcanic Ashes






- Airport Elevation : 247 ft
- IATA code : BLL


EKBI - Billund

CURRENT METAR :
  • 311920Z AUTO 17010KT 120V190 9999 -SHRA OVC008/// 12/12 Q1011

EXPIRED METARs :
  • 311850Z AUTO 16009KT 130V190 9999 -SHRA SCT006/// OVC029/// 12/12 Q1012
  • 311820Z AUTO 17009KT 4500 -SHRA BR OVC006/// 12/12 Q1012
  • 311750Z AUTO 17010KT 3300 -SHRA BR OVC007/// 12/12 Q1013
  • 311720Z AUTO 16008KT 140V200 9999 OVC004/// 13/12 Q1013
  • 311650Z AUTO 14008KT 4200 -SHRA BR OVC004/// 12/12 Q1013

TAF TAF EKBI
Valid from the 31 at 18:00 until the 01 at 18:00 UTC


311705Z 3118/0118 17012KT 8000 BKN020
TEMPO 3118/0102 17015G28KT 3000 RADZ BKN005
TEMPO 0110/0116 18015G25KT BKN014
BECMG 0116/0118 3000 RADZ BR BKN005



MET'MAP, your aeronautical weather chart ! - Copyright ORBIFLY December 2007 - Disclaimer

ORBIFLY MET'MAP TEAM :

Programming & Development : Alexandra Zaïnal
Concept & original design : Baudouin d'Aumeries
Assistance for programming : Marc-Olivier Méhu
Technical & hardware support : Manuel Goepfert

Contact : metmap@orbifly.com




SOURCES & CREDITS :

   NOAA